Latest Coastal Weather Observations for Lord Howe Island

IDN60701

Issued at 10:11 am EST Friday 14 August 2020 (issued every 10 minutes, with the page automatically refreshed every 10 minutes)

About coastal observations | Map of coastal stations | Coastal observations for NSW | Marine services | Other Formats
Station Details ID: 200839 Name: LORD HOWE ISLAND AERO Lat: -31.54 Lon: 159.08 Height: 5.0 m
Data from the previous 72 hours. | See also: Recent months at Lord Howe Island

Observations are collected in the New South Wales time zone (Eastern Standard Time) which includes daylight savings in the summer period. Therefore 'Rain since 9am' totals and other values are based on the New South Wales time zone, which may differ from local time.

Date/Time
EST
Wind Sea
Height
m
Swell Vis
km
Cloud Weather Temp
°C
Press
hPa
Rain since
9am
mm
Dir  Spd
kts
Gust
kts
Height
m
Period
s
Dir
14/10:00am NE 5 7 - - - - 10 Partly cloudy - 20.7 1018.9 0.0
14/09:51am NE 6 7 - - - - 10 Partly cloudy - 20.7 1018.9 0.0
14/09:30am NE 6 7 - - - - 10 Partly cloudy - 20.8 1019.0 0.0
14/09:00am ENE 5 6 - - - - 10 Partly cloudy - 20.2 1019.1 0.0
14/08:30am ENE 5 6 - - - - 10 - - 19.9 1018.8 0.6
14/08:00am E 6 7 - - - - 10 - - 19.6 1018.6 0.6
14/07:30am E 6 7 - - - - 10 - - 18.5 1018.4 0.6
14/07:09am CALM 0 0 - - - - 7 - - 16.5 1018.4 0.6
14/07:00am CALM 0 0 - - - - 6 - - 15.9 1018.3 0.6
14/06:30am CALM 0 0 - - - - 0.5 - - 13.1 1018.0 0.6
14/06:00am CALM 0 0 - - - - 0.4 - - 12.6 1017.8 0.6
14/05:30am CALM 0 0 - - - - 0.3 Mostly clear - 13.4 1017.5 0.6
14/05:20am CALM 0 0 - - - - 0.3 Partly cloudy - 13.6 1017.5 0.6
14/05:07am CALM 0 0 - - - - 2 Partly cloudy - 13.9 1017.4 0.6
14/05:00am CALM 0 0 - - - - 0.5 Partly cloudy - 14.7 1017.4 0.6
14/04:30am CALM 0 0 - - - - 0.5 Partly cloudy - 14.4 1017.2 0.6
14/04:14am CALM 0 0 - - - - 3 Partly cloudy - 15.2 1017.0 0.6
14/04:11am CALM 0 0 - - - - 10 Partly cloudy - 15.3 1017.0 0.6
14/04:00am CALM 0 0 - - - - 10 Partly cloudy - 15.1 1017.1 0.6
14/03:30am S 4 5 - - - - 10 Partly cloudy - 16.9 1016.7 0.6
14/03:00am SSW 5 6 - - - - 10 Partly cloudy - 17.2 1016.7 0.6
14/02:30am SSW 5 6 - - - - 10 Cloudy - 17.2 1016.7 0.6
14/02:06am SSW 6 7 - - - - 10 Partly cloudy - 17.3 1016.8 0.6
14/02:00am SW 6 7 - - - - 10 Partly cloudy - 17.5 1016.8 0.6
14/01:30am WSW 6 8 - - - - 10 - - 17.9 1017.0 0.6
14/01:00am W 8 9 - - - - 10 - - 17.2 1017.3 0.6
14/12:30am W 4 6 - - - - 10 - - 16.0 1017.4 0.6
14/12:03am SSW 4 4 - - - - 10 - - 15.2 1017.4 0.6
14/12:00am SSW 4 4 - - - - 10 - - 15.0 1017.3 0.6
 
Date/Time
EST
Wind Sea
Height
m
Swell Vis
km
Cloud Weather Temp
°C
Press
hPa
Rain since
9am
mm
Dir  Spd
kts
Gust
kts
Height
m
Period
s
Dir
13/11:50pm SW 3 4 - - - - 5 - - 13.4 1017.3 0.6
13/11:30pm SSW 4 5 - - - - 10 Mostly clear Rain 14.7 1017.2 0.6
13/11:27pm SW 3 5 - - - - 10 Partly cloudy - 15.1 1017.2 0.4
13/11:00pm CALM 0 0 - - - - 1 Partly cloudy - 14.4 1017.3 0.4
13/10:30pm CALM 0 0 - - - - 1 - - 13.0 1017.0 0.4
13/10:00pm CALM 0 3 - - - - 4 Partly cloudy - 14.0 1017.1 0.4
13/09:30pm SSW 2 4 - - - - 4 - - 13.7 1017.0 0.4
13/09:18pm SW 1 3 - - - - 5 - - 13.3 1017.0 0.4
13/09:00pm S 1 3 - - - - 10 - - 14.2 1016.9 0.4
13/08:30pm SSW 4 5 - - - - 10 - - 14.2 1016.8 0.4
13/08:00pm SSW 4 5 - - - - 10 - - 15.9 1016.5 0.4
13/07:30pm S 5 7 - - - - 10 - - 16.1 1016.2 0.4
13/07:00pm SSW 4 5 - - - - 10 - - 16.2 1016.0 0.4
13/06:30pm NNW 3 5 - - - - 10 - - 15.5 1015.8 0.4
13/06:00pm CALM 0 2 - - - - 10 - - 13.4 1015.5 0.4
13/05:30pm CALM 0 0 - - - - 10 - - 13.8 1015.0 0.4
13/05:00pm CALM 0 3 - - - - 10 - - 15.2 1014.9 0.4
13/04:30pm W 2 4 - - - - 10 Partly cloudy - 17.2 1014.5 0.4
13/04:00pm WNW 4 5 - - - - 10 Cloudy - 17.6 1014.7 0.4
13/03:30pm WSW 1 3 - - - - 10 - - 17.9 1014.6 0.4
13/03:00pm SW 4 6 - - - - 10 Cloudy - 17.7 1014.3 0.4
13/02:30pm SW 4 6 - - - - 10 Cloudy Drizzle 17.3 1014.3 0.4
13/02:00pm E 3 6 - - - - 10 Partly cloudy - 16.9 1013.8 0.4
13/01:30pm SW 3 4 - - - - 10 Cloudy - 16.8 1014.5 0.4
13/01:00pm WSW 7 10 - - - - 10 Cloudy - 16.6 1015.5 0.2
13/12:30pm WSW 10 13 - - - - 10 Cloudy - 16.9 1015.6 0.0
13/12:00pm WSW 14 19 - - - - 10 Partly cloudy - 16.9 1016.1 0.0
13/11:30am WSW 13 18 - - - - 10 Cloudy Showers 18.1 1016.3 0.0
13/11:00am WSW 10 12 - - - - 10 Partly cloudy - 18.4 1016.4 0.0
13/10:30am WSW 9 12 - - - - 10 Partly cloudy - 18.4 1016.7 0.0
13/10:00am W 8 12 - - - - 10 - - 19.2 1017.0 0.0
13/09:30am W 11 13 - - - - 10 - - 19.4 1017.4 0.0
13/09:00am W 7 10 - - - - 10 - - 19.7 1017.3 0.0
13/08:30am W 10 13 - - - - 10 Partly cloudy - 18.0 1017.5 1.0
13/08:00am W 11 13 - - - - 10 Partly cloudy - 18.7 1017.6 1.0
13/07:30am W 10 13 - - - - 10 Partly cloudy - 17.6 1017.5 1.0
13/07:00am W 12 15 - - - - 10 Partly cloudy - 17.4 1017.3 1.0
13/06:30am W 11 14 - - - - 10 Partly cloudy - 16.8 1017.1 1.0
13/06:00am W 11 13 - - - - 10 Partly cloudy - 16.7 1016.8 1.0
13/05:30am WSW 10 13 - - - - 10 Mostly clear - 16.8 1016.5 1.0
13/05:00am W 9 12 - - - - 10 Partly cloudy - 16.4 1016.2 1.0
13/04:31am W 9 12 - - - - 10 Partly cloudy - 16.2 1016.1 1.0
13/04:30am W 9 12 - - - - 10 Partly cloudy - 16.2 1016.1 1.0
13/04:02am W 8 10 - - - - 10 Partly cloudy - 16.0 1016.0 1.0
13/04:00am W 8 10 - - - - 10 Partly cloudy - 15.7 1016.0 1.0
13/03:30am CALM 0 0 - - - - 10 Partly cloudy - 14.6 1015.7 1.0
13/03:00am NNE 6 7 - - - - 10 Partly cloudy - 15.7 1015.7 1.0
13/02:30am NNE 4 6 - - - - 10 Mostly cloudy - 15.1 1015.7 1.0
13/02:00am NNE 6 10 - - - - 10 Partly cloudy - 16.1 1015.8 1.0
13/01:30am NNE 5 7 - - - - 10 Partly cloudy - 16.5 1016.2 1.0
13/01:00am NE 8 11 - - - - 10 Partly cloudy - 16.1 1016.4 1.0
13/12:30am NE 7 10 - - - - 10 Partly cloudy - 15.8 1016.8 1.0
13/12:00am NNE 13 16 - - - - 10 Partly cloudy - 16.0 1017.1 1.0
 
Date/Time
EST
Wind Sea
Height
m
Swell Vis
km
Cloud Weather Temp
°C
Press
hPa
Rain since
9am
mm
Dir  Spd
kts
Gust
kts
Height
m
Period
s
Dir
12/11:55pm NE 12 15 - - - - 10 Partly cloudy - 16.3 1017.1 1.0
12/11:38pm NE 12 15 - - - - 5 Partly cloudy - 16.2 1017.2 1.0
12/11:30pm NE 9 13 - - - - 10 Cloudy - 17.0 1017.2 0.0
12/11:00pm N 4 8 - - - - 10 Partly cloudy - 17.1 1017.4 0.0
12/10:30pm NE 5 7 - - - - 10 Partly cloudy - 17.0 1017.5 0.0
12/10:00pm NE 7 10 - - - - 10 Cloudy - 16.7 1017.6 0.0
12/09:30pm N 7 12 - - - - 10 Cloudy - 16.4 1017.7 0.0
12/09:00pm NE 7 9 - - - - 10 Partly cloudy - 17.1 1017.7 0.0
12/08:30pm NE 5 8 - - - - 10 Cloudy - 16.5 1017.8 0.0
12/08:00pm ENE 7 9 - - - - 10 Cloudy - 17.1 1017.8 0.0
12/07:30pm ENE 9 12 - - - - 10 Partly cloudy - 17.0 1017.7 0.0
12/07:00pm ENE 11 13 - - - - 10 - - 16.9 1017.3 0.0
12/06:30pm ENE 9 11 - - - - 10 Partly cloudy - 16.7 1017.3 0.0
12/06:00pm E 9 13 - - - - 10 Partly cloudy - 16.6 1017.2 0.0
12/05:30pm ENE 9 12 - - - - 10 Cloudy - 16.5 1017.0 0.0
12/05:00pm ESE 7 11 - - - - 10 - - 15.9 1016.9 0.0
12/04:30pm E 9 12 - - - - 10 - - 16.6 1017.0 0.0
12/04:00pm E 8 11 - - - - 10 - - 17.5 1016.8 0.0
12/03:30pm E 7 9 - - - - 10 - - 17.8 1017.1 0.0
12/03:00pm ENE 7 9 - - - - 10 - - 18.4 1017.3 0.0
12/02:30pm E 7 10 - - - - 10 Partly cloudy - 18.6 1017.3 0.0
12/02:00pm ENE 7 11 - - - - 10 Partly cloudy - 18.9 1017.4 0.0
12/01:30pm ENE 8 10 - - - - 10 Cloudy - 18.7 1017.5 0.0
12/01:00pm ENE 6 9 - - - - 10 Cloudy - 18.7 1017.9 0.0
12/12:30pm ENE 6 9 - - - - 10 Partly cloudy - 17.8 1018.4 0.0
12/12:00pm E 5 8 - - - - 10 Partly cloudy - 18.0 1018.7 0.0
12/11:30am E 7 11 - - - - 10 Cloudy - 18.3 1018.6 0.0
12/11:00am E 9 12 - - - - 10 Partly cloudy - 18.3 1018.6 0.0
12/10:30am E 10 15 - - - - 10 Cloudy - 18.3 1018.4 0.0
12/10:00am E 8 11 - - - - 10 Cloudy - 18.3 1019.1 0.0
12/09:30am E 7 9 - - - - 10 Cloudy - 18.7 1019.7 0.0
12/09:00am E 7 8 - - - - 10 Partly cloudy - 18.4 1019.8 0.0
12/08:30am E 9 12 - - - - 10 Mostly clear - 18.8 1019.7 3.8
12/08:00am ESE 5 9 - - - - 10 - - 17.8 1019.7 3.8
12/07:30am S 3 8 - - - - 10 Partly cloudy - 17.3 1019.6 3.8
12/07:00am SSE 3 7 - - - - 10 Partly cloudy - 17.5 1019.2 3.8
12/06:30am SE 4 7 - - - - 10 Partly cloudy - 16.9 1018.8 3.8
12/06:00am SE 4 9 - - - - 10 Partly cloudy - 16.3 1018.5 3.8
12/05:30am SE 5 7 - - - - 10 Cloudy - 16.4 1017.9 3.8
12/05:00am SE 4 7 - - - - 10 Partly cloudy - 16.0 1017.6 3.8
12/04:30am SE 5 8 - - - - 10 - - 16.1 1017.3 3.8
12/04:00am SE 6 10 - - - - 10 Partly cloudy - 16.0 1017.1 3.8
12/03:30am SE 5 8 - - - - 10 Cloudy - 16.6 1017.1 3.8
12/03:00am SE 5 8 - - - - 10 Partly cloudy - 16.5 1017.0 3.8
12/02:30am SE 6 8 - - - - 10 Mostly cloudy - 16.2 1017.0 3.8
12/02:00am SE 4 7 - - - - 10 Partly cloudy - 16.3 1017.1 3.8
12/01:30am ESE 4 8 - - - - 10 Partly cloudy - 15.5 1017.1 3.8
12/01:00am S 5 7 - - - - 10 Partly cloudy - 16.1 1017.1 3.8
12/12:30am SSE 5 9 - - - - 10 Partly cloudy - 15.6 1017.2 3.8
12/12:00am SSW 5 8 - - - - 10 Partly cloudy - 16.1 1017.0 3.8
 
Date/Time
EST
Wind Sea
Height
m
Swell Vis
km
Cloud Weather Temp
°C
Press
hPa
Rain since
9am
mm
Dir  Spd
kts
Gust
kts
Height
m
Period
s
Dir
11/11:30pm SSW 5 9 - - - - 10 Mostly clear - 16.2 1016.9 3.8
11/11:00pm SSW 6 12 - - - - 10 Partly cloudy - 15.7 1016.7 3.8
11/10:30pm NW 4 7 - - - - 10 - - 15.0 1016.6 3.8
11/10:00pm ENE 4 10 - - - - 10 Partly cloudy - 16.1 1016.5 3.8
11/09:30pm ESE 7 14 - - - - 10 Cloudy - 16.7 1016.4 3.8
11/09:00pm SSE 5 11 - - - - 10 Partly cloudy - 16.5 1016.3 3.8
11/08:30pm SE 6 13 - - - - 10 Mostly clear - 16.3 1016.0 3.8
11/08:00pm SSW 11 21 - - - - 10 Partly cloudy - 16.5 1015.8 3.8
11/07:30pm SSW 9 20 - - - - 10 Cloudy - 16.7 1015.6 3.8
11/07:00pm SSW 12 27 - - - - 10 Partly cloudy - 17.0 1015.3 3.6
11/06:30pm SSW 11 23 - - - - 10 Partly cloudy - 16.8 1015.0 3.6
11/06:00pm SSW 11 23 - - - - 10 Cloudy - 16.6 1014.3 3.6
11/05:30pm SSW 11 18 - - - - 10 Mostly cloudy Showers 16.3 1014.0 3.6
11/05:00pm SSW 12 22 - - - - 10 Cloudy - 16.4 1013.5 3.6
11/04:51pm SSW 15 25 - - - - 10 Cloudy - 16.4 1013.2 3.6
11/04:30pm SSW 13 32 - - - - 10 Cloudy - 16.4 1012.8 3.6
11/04:21pm SSW 13 30 - - - - 10 Cloudy - 16.3 1012.5 3.6
11/04:02pm SSW 12 27 - - - - 5 Cloudy - 15.9 1012.6 3.0
11/04:01pm SSW 13 27 - - - - 6 Cloudy - 16.2 1012.5 3.0
11/04:00pm SSW 13 27 - - - - 7 Cloudy - 16.1 1012.5 2.8
11/03:39pm S 9 18 - - - - 5 Cloudy - 16.1 1012.2 2.0
11/03:30pm SSW 10 17 - - - - 10 Cloudy - 16.9 1012.0 1.0
11/03:18pm SSW 10 22 - - - - 10 Cloudy - 16.9 1011.9 1.0
11/03:01pm SSW 13 25 - - - - 10 Partly cloudy - 16.9 1011.7 1.0
11/03:00pm SSW 14 25 - - - - 10 Partly cloudy - 16.9 1011.6 1.0
11/02:57pm SW 15 25 - - - - 10 Partly cloudy - 16.8 1011.3 1.0
11/02:44pm SSW 13 26 - - - - 5 Partly cloudy - 16.3 1011.5 1.0
11/02:33pm S 8 20 - - - - 5 Cloudy - 16.6 1011.6 0.6
11/02:30pm SSW 9 20 - - - - 8 Mostly cloudy Showers 16.7 1011.5 0.4
11/02:00pm SSW 13 21 - - - - 10 Mostly clear - 16.9 1011.2 0.2
11/01:35pm SSW 15 28 - - - - 9 Mostly clear Showers 17.7 1010.8 0.2
11/01:30pm SSW 13 24 - - - - 10 Mostly clear Showers 18.7 1010.8 0.2
11/01:00pm SSW 10 20 - - - - 10 Mostly clear - 18.9 1010.7 0.2
11/12:30pm SSW 9 18 - - - - 10 Mostly clear - 19.2 1010.3 0.2
11/12:00pm SSW 8 17 - - - - 10 Mostly clear - 18.6 1010.4 0.2
11/11:30am SSW 9 17 - - - - 10 Mostly cloudy - 18.9 1010.7 0.2
11/11:00am SW 8 20 - - - - 10 Partly cloudy - 18.4 1010.6 0.2
11/10:30am S 7 15 - - - - 10 Partly cloudy - 18.9 1010.2 0.2
11/10:00am S 7 19 - - - - 10 Partly cloudy - 18.6 1010.2 0.0

Other formats

Comma delimited format used in spreadsheet applications
http://www.bom.gov.au/fwo/IDN60701/IDN60701.94995.axf

JavaScript Object Notation format (JSON) in row-major order
http://www.bom.gov.au/fwo/IDN60701/IDN60701.94995.json

Data quality

Most of these data are generated automatically and are frequently updated. Quality checks on data are not normally performed. It is possible for incorrect values to appear. Refer to information at About Latest Weather Observations and please check the disclaimer before using these data.